createdAt,value
2019-05-23T00:00:39.608Z,76.93
2019-05-23T00:01:39.597Z,76.73
2019-05-23T00:02:39.587Z,76.93
2019-05-23T00:03:39.578Z,76.83
2019-05-23T00:04:39.583Z,76.93
2019-05-23T00:05:39.561Z,76.93
2019-05-23T00:06:39.597Z,76.93
2019-05-23T00:07:39.530Z,77.03
2019-05-23T00:08:39.529Z,77.55
2019-05-23T00:09:39.505Z,77.55
2019-05-23T00:10:39.510Z,77.64
2019-05-23T00:11:40.374Z,77.55
2019-05-23T00:12:39.483Z,77.48
2019-05-23T00:13:39.474Z,77.48
2019-05-23T00:14:39.464Z,77.27
2019-05-23T00:15:39.465Z,77.58
2019-05-23T00:16:39.439Z,77.78
2019-05-23T00:17:39.424Z,77.58
2019-05-23T00:18:39.412Z,77.27
2019-05-23T00:19:39.404Z,78.19
2019-05-23T00:20:39.424Z,78.09
2019-05-23T00:21:39.382Z,77.89
2019-05-23T00:22:39.374Z,77.48
2019-05-23T00:23:39.376Z,78.19
2019-05-23T00:24:39.368Z,78.19
2019-05-23T00:25:39.343Z,78.09
2019-05-23T00:26:39.350Z,77.98
2019-05-23T00:27:39.319Z,78.30
2019-05-23T00:28:39.309Z,78.09
2019-05-23T00:29:40.492Z,78.30
2019-05-23T00:30:39.284Z,78.30
2019-05-23T00:31:39.292Z,78.19
2019-05-23T00:32:39.266Z,78.50
2019-05-23T00:33:39.257Z,78.39
2019-05-23T00:34:39.264Z,78.64
2019-05-23T00:35:39.234Z,77.92
2019-05-23T00:36:39.230Z,77.89
2019-05-23T00:37:39.212Z,78.70
2019-05-23T00:38:39.203Z,78.12
2019-05-23T00:39:39.190Z,78.64
2019-05-23T00:40:39.179Z,78.74
2019-05-23T00:41:39.187Z,78.94
2019-05-23T00:42:39.153Z,78.94
2019-05-23T00:43:39.152Z,79.25
2019-05-23T00:44:39.138Z,78.64
2019-05-23T00:45:39.131Z,79.04
2019-05-23T00:46:39.117Z,78.84
2019-05-23T00:47:39.126Z,78.94
2019-05-23T00:48:39.090Z,79.14
2019-05-23T00:49:39.079Z,79.04
2019-05-23T00:50:39.071Z,78.84
2019-05-23T00:51:39.065Z,78.84
2019-05-23T00:52:39.067Z,79.04
2019-05-23T00:53:39.040Z,78.94
2019-05-23T00:54:39.033Z,79.04
2019-05-23T00:55:39.021Z,79.14
2019-05-23T00:56:39.036Z,78.94
2019-05-23T00:57:39.013Z,78.94
2019-05-23T00:58:39.025Z,78.84
2019-05-23T00:59:38.970Z,79.04
2019-05-23T01:00:38.964Z,78.74
2019-05-23T01:01:38.963Z,79.14
2019-05-23T01:02:38.967Z,78.74
2019-05-23T01:03:38.937Z,79.14
2019-05-23T01:04:38.933Z,79.04
2019-05-23T01:05:38.914Z,79.14
2019-05-23T01:06:38.912Z,78.84
2019-05-23T01:07:38.887Z,79.04
2019-05-23T01:08:38.891Z,79.04
2019-05-23T01:09:38.874Z,79.04
2019-05-23T01:10:38.909Z,78.94
2019-05-23T01:11:38.850Z,79.04
2019-05-23T01:12:38.838Z,79.04
2019-05-23T01:13:38.873Z,79.04
2019-05-23T01:14:38.852Z,79.35
2019-05-23T01:15:38.811Z,79.35
2019-05-23T01:16:38.798Z,79.25
2019-05-23T01:17:38.790Z,79.04
2019-05-23T01:18:38.790Z,79.45
2019-05-23T01:19:38.765Z,79.14
2019-05-23T01:20:38.751Z,78.94
2019-05-23T01:21:38.748Z,79.25
2019-05-23T01:22:38.735Z,78.94
2019-05-23T01:23:38.748Z,78.94
2019-05-23T01:24:38.713Z,79.04
2019-05-23T01:25:38.712Z,78.74
2019-05-23T01:26:38.685Z,79.25
2019-05-23T01:27:38.690Z,79.08
2019-05-23T01:28:38.683Z,79.25
2019-05-23T01:29:38.729Z,79.28
2019-05-23T01:30:38.649Z,79.49
2019-05-23T01:31:38.632Z,79.28
2019-05-23T01:32:38.623Z,79.35
2019-05-23T01:33:38.621Z,79.28
2019-05-23T01:34:38.681Z,78.88
2019-05-23T01:35:38.595Z,79.18
2019-05-23T01:36:38.582Z,79.59
2019-05-23T01:37:38.574Z,79.69
2019-05-23T01:38:38.568Z,79.39
2019-05-23T01:39:38.567Z,78.88
2019-05-23T01:40:38.537Z,78.94
2019-05-23T01:41:38.535Z,79.14
2019-05-23T01:42:38.520Z,79.28
2019-05-23T01:43:38.507Z,78.94
2019-05-23T01:44:38.500Z,79.18
2019-05-23T01:45:38.517Z,79.28
2019-05-23T01:46:38.484Z,79.39
2019-05-23T01:47:38.484Z,79.59
2019-05-23T01:48:38.468Z,78.98
2019-05-23T01:49:38.467Z,79.08
2019-05-23T01:50:38.450Z,79.08
2019-05-23T01:51:38.422Z,79.28
2019-05-23T01:52:38.410Z,79.28
2019-05-23T01:53:38.393Z,79.28
2019-05-23T01:54:38.384Z,79.39
2019-05-23T01:55:38.407Z,79.28
2019-05-23T01:56:38.372Z,79.28
2019-05-23T01:57:38.356Z,78.98
2019-05-23T01:58:38.348Z,78.98
2019-05-23T01:59:38.338Z,78.98
2019-05-23T02:00:38.325Z,79.39
2019-05-23T02:01:38.327Z,79.39
2019-05-23T02:02:38.318Z,79.49
2019-05-23T02:03:38.293Z,79.08
2019-05-23T02:04:38.279Z,78.88
2019-05-23T02:05:38.264Z,79.08
2019-05-23T02:06:38.266Z,79.22
2019-05-23T02:07:38.251Z,79.18
2019-05-23T02:08:38.253Z,78.81
2019-05-23T02:09:38.232Z,78.98
2019-05-23T02:10:38.217Z,79.39
2019-05-23T02:11:38.221Z,79.39
2019-05-23T02:12:38.197Z,79.32
2019-05-23T02:13:38.191Z,79.32
2019-05-23T02:14:38.175Z,79.22
2019-05-23T02:15:38.161Z,78.91
2019-05-23T02:16:38.153Z,79.12
2019-05-23T02:17:38.151Z,79.43
2019-05-23T02:18:38.129Z,79.32
2019-05-23T02:19:38.122Z,79.63
2019-05-23T02:20:38.113Z,79.39
2019-05-23T02:21:38.101Z,79.73
2019-05-23T02:22:38.110Z,79.52
2019-05-23T02:23:38.073Z,79.93
2019-05-23T02:24:38.062Z,80.14
2019-05-23T02:25:38.052Z,79.63
2019-05-23T02:26:38.043Z,79.93
2019-05-23T02:27:38.047Z,79.97
2019-05-23T02:28:38.047Z,79.97
2019-05-23T02:29:38.016Z,80.14
2019-05-23T02:30:38.004Z,80.18
2019-05-23T02:31:38.000Z,80.18
2019-05-23T02:32:37.988Z,80.04
2019-05-23T02:33:37.995Z,80.28
2019-05-23T02:34:37.961Z,80.07
2019-05-23T02:35:37.949Z,80.28
2019-05-23T02:36:37.938Z,80.48
2019-05-23T02:37:37.924Z,80.28
2019-05-23T02:38:38.920Z,79.97
2019-05-23T02:39:37.938Z,79.97
2019-05-23T02:40:37.911Z,80.48
2019-05-23T02:41:37.886Z,80.48
2019-05-23T02:42:37.878Z,80.93
2019-05-23T02:43:37.861Z,81.51
2019-05-23T02:44:37.862Z,81.10
2019-05-23T02:45:37.889Z,80.89
2019-05-23T02:46:37.831Z,81.44
2019-05-23T02:47:37.818Z,81.10
2019-05-23T02:48:37.818Z,81.54
2019-05-23T02:49:37.830Z,81.51
2019-05-23T02:50:37.786Z,81.10
2019-05-23T02:51:37.784Z,81.10
2019-05-23T02:52:37.770Z,81.51
2019-05-23T02:53:37.764Z,81.20
2019-05-23T02:54:37.763Z,81.30
2019-05-23T02:55:37.728Z,81.30
2019-05-23T02:56:37.728Z,81.40
2019-05-23T02:57:37.708Z,80.48
2019-05-23T02:58:37.699Z,81.13
2019-05-23T02:59:37.715Z,81.34
2019-05-23T03:00:53.404Z,81.74
2019-05-23T03:01:38.662Z,81.40
2019-05-23T03:02:37.663Z,81.40
2019-05-23T03:03:37.649Z,81.44
2019-05-23T03:04:37.636Z,81.65
2019-05-23T03:05:37.642Z,80.52
2019-05-23T03:06:37.626Z,81.03
2019-05-23T03:07:37.601Z,81.44
2019-05-23T03:08:37.593Z,81.34
2019-05-23T03:09:37.588Z,81.30
2019-05-23T03:10:37.597Z,81.40
2019-05-23T03:11:37.570Z,81.60
2019-05-23T03:12:37.554Z,81.20
2019-05-23T03:13:37.540Z,81.54
2019-05-23T03:14:37.529Z,81.24
2019-05-23T03:15:37.513Z,81.13
2019-05-23T03:16:37.514Z,81.51
2019-05-23T03:17:37.506Z,81.40
2019-05-23T03:18:37.492Z,81.30
2019-05-23T03:19:37.475Z,81.03
2019-05-23T03:20:37.469Z,81.10
2019-05-23T03:21:37.464Z,81.24
2019-05-23T03:22:37.441Z,81.34
2019-05-23T03:23:37.433Z,81.13
2019-05-23T03:24:37.421Z,80.93
2019-05-23T03:25:37.412Z,81.34
2019-05-23T03:26:37.417Z,81.24
2019-05-23T03:27:37.389Z,81.44
2019-05-23T03:28:37.374Z,81.03
2019-05-23T03:29:37.366Z,81.13
2019-05-23T03:30:37.353Z,81.03
2019-05-23T03:31:37.381Z,80.83
2019-05-23T03:32:39.581Z,80.87
2019-05-23T03:33:37.321Z,81.03
2019-05-23T03:34:37.313Z,81.07
2019-05-23T03:35:37.315Z,80.93
2019-05-23T03:36:37.310Z,81.07
2019-05-23T03:37:37.294Z,81.38
2019-05-23T03:38:37.271Z,81.48
2019-05-23T03:39:37.255Z,81.58
2019-05-23T03:40:37.247Z,81.48
2019-05-23T03:41:37.241Z,81.48
2019-05-23T03:42:37.249Z,81.48
2019-05-23T03:43:37.218Z,81.27
2019-05-23T03:44:37.216Z,81.48
2019-05-23T03:45:39.711Z,82.13
2019-05-23T03:46:37.195Z,82.75
2019-05-23T03:47:37.171Z,82.84
2019-05-23T03:48:37.173Z,82.91
2019-05-23T03:49:37.165Z,82.54
2019-05-23T03:50:37.161Z,82.54
2019-05-23T03:51:37.129Z,82.54
2019-05-23T03:52:37.118Z,82.34
2019-05-23T03:53:37.120Z,82.54
2019-05-23T03:54:37.102Z,82.34
2019-05-23T03:55:37.099Z,82.43
2019-05-23T03:56:37.098Z,82.54
2019-05-23T03:57:37.073Z,82.34
2019-05-23T03:58:37.094Z,82.54
2019-05-23T03:59:37.046Z,82.43
2019-05-23T04:00:37.050Z,82.43
2019-05-23T04:01:47.766Z,82.54
2019-05-23T04:02:38.023Z,82.54
2019-05-23T04:03:39.857Z,82.75
2019-05-23T04:04:37.013Z,82.43
2019-05-23T04:05:36.989Z,82.43
2019-05-23T04:06:36.969Z,82.95
2019-05-23T04:07:36.972Z,82.75
2019-05-23T04:08:36.950Z,83.09
2019-05-23T04:09:36.962Z,83.09
2019-05-23T04:10:36.931Z,83.09
2019-05-23T04:11:36.932Z,83.39
2019-05-23T04:12:36.901Z,83.29
2019-05-23T04:13:36.898Z,83.70
2019-05-23T04:14:36.890Z,83.60
2019-05-23T04:15:36.889Z,83.74
2019-05-23T04:16:36.865Z,83.64
2019-05-23T04:17:36.855Z,83.74
2019-05-23T04:18:36.843Z,83.95
2019-05-23T04:19:36.835Z,84.25
2019-05-23T04:20:36.829Z,84.25
2019-05-23T04:21:36.812Z,84.15
2019-05-23T04:22:36.808Z,84.25
2019-05-23T04:23:36.790Z,84.29
2019-05-23T04:24:36.779Z,84.15
2019-05-23T04:25:36.785Z,84.39
2019-05-23T04:26:36.778Z,83.88
2019-05-23T04:27:36.746Z,83.98
2019-05-23T04:28:36.738Z,84.19
2019-05-23T04:29:36.729Z,84.70
2019-05-23T04:30:36.720Z,84.80
2019-05-23T04:31:36.743Z,84.70
2019-05-23T04:32:36.706Z,84.09
2019-05-23T04:33:36.695Z,84.70
2019-05-23T04:34:36.670Z,84.60
2019-05-23T04:35:36.665Z,84.60
2019-05-23T04:36:36.673Z,84.70
2019-05-23T04:37:36.660Z,84.80
2019-05-23T04:38:36.924Z,84.80
2019-05-23T04:39:36.622Z,84.70
2019-05-23T04:40:36.619Z,84.70
2019-05-23T04:41:36.600Z,84.70
2019-05-23T04:42:36.609Z,84.70
2019-05-23T04:43:36.575Z,84.80
2019-05-23T04:44:36.566Z,84.80
2019-05-23T04:45:36.549Z,84.91
2019-05-23T04:46:36.540Z,85.01
2019-05-23T04:47:36.554Z,84.60
2019-05-23T04:48:36.532Z,84.80
2019-05-23T04:49:36.518Z,84.70
2019-05-23T04:50:36.500Z,84.60
2019-05-23T04:51:36.485Z,84.70
2019-05-23T04:52:36.500Z,84.60
2019-05-23T04:53:36.467Z,84.80
2019-05-23T04:54:36.467Z,84.70
2019-05-23T04:55:36.450Z,84.50
2019-05-23T04:56:36.431Z,84.39
2019-05-23T04:57:36.425Z,84.25
2019-05-23T04:58:36.429Z,83.29
2019-05-23T04:59:36.430Z,82.89
2019-05-23T05:00:36.409Z,83.09
2019-05-23T05:01:36.386Z,82.54
2019-05-23T05:02:36.373Z,82.64
2019-05-23T05:03:36.385Z,82.43
2019-05-23T05:04:36.348Z,82.03
2019-05-23T05:05:36.337Z,82.13
2019-05-23T05:06:36.326Z,81.27
2019-05-23T05:07:36.322Z,81.48
2019-05-23T05:08:36.307Z,80.97
2019-05-23T05:09:36.305Z,81.07
2019-05-23T05:10:36.280Z,81.17
2019-05-23T05:11:36.283Z,81.24
2019-05-23T05:12:36.265Z,80.52
2019-05-23T05:13:36.258Z,80.32
2019-05-23T05:14:36.259Z,80.32
2019-05-23T05:15:36.227Z,80.52
2019-05-23T05:16:36.215Z,80.11
2019-05-23T05:17:36.208Z,79.87
2019-05-23T05:18:36.193Z,79.77
2019-05-23T05:19:36.200Z,79.87
2019-05-23T05:20:36.179Z,79.66
2019-05-23T05:21:36.171Z,79.97
2019-05-23T05:22:36.186Z,79.97
2019-05-23T05:23:36.138Z,79.66
2019-05-23T05:24:39.974Z,79.05
2019-05-23T05:25:36.123Z,79.25
2019-05-23T05:26:36.114Z,79.16
2019-05-23T05:27:36.103Z,78.85
2019-05-23T05:28:36.090Z,78.64
2019-05-23T05:29:36.082Z,79.22
2019-05-23T05:30:36.083Z,79.02
2019-05-23T05:31:36.059Z,79.12
2019-05-23T05:32:44.718Z,78.16
2019-05-23T05:33:37.188Z,78.41
2019-05-23T05:34:36.027Z,78.27
2019-05-23T05:35:36.056Z,77.00
2019-05-23T05:36:36.003Z,75.92
2019-05-23T05:37:35.990Z,74.11
2019-05-23T05:38:35.983Z,72.65
2019-05-23T05:39:35.975Z,71.36
2019-05-23T05:40:35.995Z,70.11
2019-05-23T05:41:35.957Z,68.42
2019-05-23T05:42:35.939Z,66.97
2019-05-23T05:43:35.949Z,66.70
2019-05-23T05:44:35.924Z,65.69
2019-05-23T05:45:35.912Z,64.64
2019-05-23T05:46:35.985Z,64.31
2019-05-23T05:47:35.883Z,63.17
2019-05-23T05:48:35.872Z,61.92
2019-05-23T05:49:35.859Z,61.49
2019-05-23T05:50:35.877Z,60.42
2019-05-23T05:51:35.866Z,59.78
2019-05-23T05:52:35.838Z,59.25
2019-05-23T05:53:35.825Z,57.38
2019-05-23T05:54:35.827Z,57.18
2019-05-23T05:55:35.876Z,56.75
2019-05-23T05:56:35.803Z,56.12
2019-05-23T05:57:35.789Z,55.08
2019-05-23T05:58:35.778Z,54.88
2019-05-23T05:59:35.754Z,54.25
2019-05-23T06:00:35.747Z,53.32
2019-05-23T06:01:35.766Z,52.80
2019-05-23T06:02:35.735Z,53.07
2019-05-23T06:03:35.727Z,51.42
2019-05-23T06:04:35.712Z,51.31
2019-05-23T06:05:35.712Z,51.01
2019-05-23T06:06:35.687Z,51.44
2019-05-23T06:07:35.680Z,51.09
2019-05-23T06:08:35.657Z,50.26
2019-05-23T06:09:35.679Z,49.43
2019-05-23T06:10:35.640Z,48.28
2019-05-23T06:11:35.632Z,48.58
2019-05-23T06:12:35.738Z,47.36
2019-05-23T06:13:35.609Z,47.06
2019-05-23T06:14:35.594Z,47.54
2019-05-23T06:15:35.589Z,47.14
2019-05-23T06:16:35.577Z,47.06
2019-05-23T06:17:35.587Z,47.54
2019-05-23T06:18:35.556Z,47.24
2019-05-23T06:19:35.546Z,47.02
2019-05-23T06:20:35.525Z,47.31
2019-05-23T06:21:35.521Z,45.69
2019-05-23T06:22:35.505Z,45.89
2019-05-23T06:23:35.514Z,46.09
2019-05-23T06:24:44.572Z,45.20
2019-05-23T06:25:36.475Z,45.29
2019-05-23T06:26:35.466Z,45.29
2019-05-23T06:27:35.455Z,45.67
2019-05-23T06:28:35.453Z,45.42
2019-05-23T06:29:35.434Z,45.39
2019-05-23T06:30:35.432Z,45.89
2019-05-23T06:31:35.408Z,45.29
2019-05-23T06:32:35.428Z,44.37
2019-05-23T06:33:35.410Z,44.49
2019-05-23T06:34:35.377Z,44.78
2019-05-23T06:35:35.383Z,44.57
2019-05-23T06:36:35.368Z,44.67
2019-05-23T06:37:35.351Z,44.55
2019-05-23T06:38:35.339Z,42.83
2019-05-23T06:39:35.339Z,43.41
2019-05-23T06:40:35.311Z,42.89
2019-05-23T06:41:35.301Z,42.27
2019-05-23T06:42:35.303Z,42.35
2019-05-23T06:43:35.291Z,42.23
2019-05-23T06:44:35.285Z,42.33
2019-05-23T06:45:35.258Z,42.45
2019-05-23T06:46:35.251Z,41.67
2019-05-23T06:47:35.242Z,41.24
2019-05-23T06:48:35.236Z,41.14
2019-05-23T06:49:35.247Z,41.16
2019-05-23T06:50:35.213Z,41.17
2019-05-23T06:51:35.195Z,40.98
2019-05-23T06:52:35.188Z,41.19
2019-05-23T06:53:35.183Z,40.98
2019-05-23T06:54:35.164Z,42.61
2019-05-23T06:55:35.187Z,41.19
2019-05-23T06:56:35.165Z,41.19
2019-05-23T06:57:35.139Z,41.88
2019-05-23T06:58:35.125Z,41.38
2019-05-23T06:59:35.108Z,41.16
2019-05-23T07:00:35.114Z,40.04
2019-05-23T07:01:35.093Z,40.12
2019-05-23T07:02:35.083Z,40.12
2019-05-23T07:03:42.488Z,40.62
2019-05-23T07:04:36.062Z,40.66
2019-05-23T07:05:35.057Z,40.32
2019-05-23T07:06:35.035Z,39.70
2019-05-23T07:07:35.027Z,39.40
2019-05-23T07:08:35.019Z,39.40
2019-05-23T07:09:35.011Z,40.22
2019-05-23T07:10:35.015Z,40.64
2019-05-23T07:11:34.983Z,40.34
2019-05-23T07:12:34.967Z,39.83
2019-05-23T07:13:34.974Z,39.12
2019-05-23T07:14:34.956Z,39.31
2019-05-23T07:15:34.962Z,39.11
2019-05-23T07:16:34.954Z,38.71
2019-05-23T07:17:34.933Z,39.11
2019-05-23T07:18:34.914Z,39.01
2019-05-23T07:19:34.911Z,39.18
2019-05-23T07:20:35.686Z,37.77
2019-05-23T07:21:34.886Z,37.15
2019-05-23T07:22:34.874Z,37.24
2019-05-23T07:23:34.856Z,36.63
2019-05-23T07:24:34.842Z,36.23
2019-05-23T07:25:34.850Z,36.22
2019-05-23T07:26:34.826Z,36.32
2019-05-23T07:27:34.821Z,36.32
2019-05-23T07:28:34.810Z,35.90
2019-05-23T07:29:34.801Z,35.92
2019-05-23T07:30:34.803Z,35.74
2019-05-23T07:31:35.688Z,37.34
2019-05-23T07:32:34.760Z,36.88
2019-05-23T07:33:34.777Z,37.70
2019-05-23T07:34:34.763Z,36.78
2019-05-23T07:35:34.747Z,37.30
2019-05-23T07:36:34.731Z,38.20
2019-05-23T07:37:34.708Z,37.16
2019-05-23T07:38:34.703Z,36.96
2019-05-23T07:39:34.741Z,36.25
2019-05-23T07:40:34.693Z,36.43
2019-05-23T07:41:34.697Z,35.94
2019-05-23T07:42:34.657Z,36.53
2019-05-23T07:43:34.643Z,35.72
2019-05-23T07:44:47.353Z,35.60
2019-05-23T07:45:39.458Z,35.72
2019-05-23T07:46:34.623Z,34.91
2019-05-23T07:47:34.613Z,34.59
2019-05-23T07:48:34.598Z,34.10
2019-05-23T07:49:34.584Z,34.38
2019-05-23T07:50:34.577Z,33.29
2019-05-23T07:51:34.590Z,32.79
2019-05-23T07:52:34.559Z,33.56
2019-05-23T07:53:34.549Z,32.92
2019-05-23T07:54:34.552Z,31.79
2019-05-23T07:55:34.533Z,31.30
2019-05-23T07:56:34.524Z,31.38
2019-05-23T07:57:34.501Z,32.28
2019-05-23T07:58:34.518Z,34.89
2019-05-23T07:59:34.508Z,36.10
2019-05-23T08:00:34.490Z,35.75
2019-05-23T08:01:34.489Z,39.32
2019-05-23T08:02:34.457Z,40.14
2019-05-23T08:03:34.543Z,40.30
2019-05-23T08:04:34.431Z,39.25
2019-05-23T08:05:34.465Z,39.14
2019-05-23T08:06:34.475Z,37.32
2019-05-23T08:07:34.407Z,36.77
2019-05-23T08:08:34.396Z,36.66
2019-05-23T08:09:34.396Z,35.80
2019-05-23T08:10:34.584Z,35.25
2019-05-23T08:11:34.392Z,34.63
2019-05-23T08:12:34.367Z,33.23
2019-05-23T08:13:34.351Z,33.21
2019-05-23T08:14:34.342Z,32.40
2019-05-23T08:15:34.327Z,32.01
2019-05-23T08:16:34.327Z,31.40
2019-05-23T08:17:34.313Z,31.27
2019-05-23T08:18:34.294Z,30.26
2019-05-23T08:19:48.477Z,30.73
2019-05-23T08:20:35.280Z,30.45
2019-05-23T08:21:34.304Z,31.37
2019-05-23T08:22:34.268Z,31.35
2019-05-23T08:23:34.284Z,31.65
2019-05-23T08:24:34.260Z,31.35
2019-05-23T08:25:34.239Z,30.94
2019-05-23T08:26:34.249Z,30.43
2019-05-23T08:27:34.203Z,29.63
2019-05-23T08:28:34.198Z,30.32
2019-05-23T08:29:34.185Z,30.43
2019-05-23T08:30:34.179Z,29.74
2019-05-23T08:31:34.198Z,30.52
2019-05-23T08:32:34.168Z,31.03
2019-05-23T08:33:34.152Z,30.32
2019-05-23T08:34:41.525Z,29.62
2019-05-23T08:35:35.136Z,29.62
2019-05-23T08:36:34.158Z,31.40
2019-05-23T08:37:34.114Z,32.52
2019-05-23T08:38:34.114Z,31.20
2019-05-23T08:39:34.102Z,31.32
2019-05-23T08:40:34.076Z,31.20
2019-05-23T08:41:34.080Z,30.29
2019-05-23T08:42:34.057Z,30.15
2019-05-23T08:43:34.061Z,28.85
2019-05-23T08:44:34.042Z,28.83
2019-05-23T08:45:34.059Z,28.83
2019-05-23T08:46:34.037Z,29.55
2019-05-23T08:47:34.012Z,29.75
2019-05-23T08:48:34.003Z,30.26
2019-05-23T08:49:33.998Z,30.34
2019-05-23T08:50:33.974Z,29.53
2019-05-23T08:51:34.007Z,29.51
2019-05-23T08:52:33.971Z,28.74
2019-05-23T08:53:33.943Z,30.27
2019-05-23T08:54:33.939Z,30.29
2019-05-23T08:55:33.938Z,30.58
2019-05-23T08:56:33.927Z,30.89
2019-05-23T08:57:33.929Z,30.57
2019-05-23T08:58:33.908Z,30.24
2019-05-23T08:59:33.886Z,29.61
2019-05-23T09:00:33.876Z,29.10
2019-05-23T09:01:33.993Z,28.08
2019-05-23T09:02:33.876Z,28.26
2019-05-23T09:03:33.858Z,27.95
2019-05-23T09:04:33.840Z,28.06
2019-05-23T09:05:33.884Z,27.39
2019-05-23T09:06:33.821Z,28.22
2019-05-23T09:07:33.821Z,27.44
2019-05-23T09:08:33.798Z,28.13
2019-05-23T09:09:33.790Z,27.85
2019-05-23T09:10:33.784Z,27.34
2019-05-23T09:11:33.779Z,27.42
2019-05-23T09:12:33.778Z,27.22
2019-05-23T09:13:33.755Z,27.11
2019-05-23T09:14:33.741Z,27.40
2019-05-23T09:15:33.747Z,27.47
2019-05-23T09:16:33.731Z,28.06
2019-05-23T09:17:51.380Z,28.77
2019-05-23T09:18:34.710Z,28.50
2019-05-23T09:19:33.703Z,28.70
2019-05-23T09:20:33.690Z,28.51
2019-05-23T09:21:33.685Z,28.81
2019-05-23T09:22:33.702Z,28.34
2019-05-23T09:23:33.660Z,28.52
2019-05-23T09:24:33.649Z,28.23
2019-05-23T09:25:33.643Z,29.62
2019-05-23T09:26:34.630Z,29.60
2019-05-23T09:27:34.707Z,29.17
2019-05-23T09:28:33.615Z,29.38
2019-05-23T09:29:33.608Z,29.38
2019-05-23T09:30:33.617Z,29.35
2019-05-23T09:31:33.581Z,29.14
2019-05-23T09:32:33.600Z,28.44
2019-05-23T09:33:33.561Z,27.92
2019-05-23T09:34:33.563Z,27.82
2019-05-23T09:35:33.549Z,27.75
2019-05-23T09:36:33.559Z,28.45
2019-05-23T09:37:33.532Z,28.37
2019-05-23T09:38:33.540Z,28.28
2019-05-23T09:39:33.524Z,28.47
2019-05-23T09:40:33.506Z,27.67
2019-05-23T09:41:33.507Z,27.86
2019-05-23T09:42:33.489Z,27.67
2019-05-23T09:43:33.494Z,26.98
2019-05-23T09:44:33.467Z,28.45
2019-05-23T09:45:33.455Z,28.08
2019-05-23T09:46:33.451Z,28.40
2019-05-23T09:47:33.446Z,28.02
2019-05-23T09:48:33.452Z,28.79
2019-05-23T09:49:33.473Z,27.62
2019-05-23T09:50:33.422Z,28.42
2019-05-23T09:51:33.399Z,28.91
2019-05-23T09:52:33.390Z,28.59
2019-05-23T09:53:33.401Z,28.88
2019-05-23T09:54:33.376Z,28.78
2019-05-23T09:55:33.375Z,29.28
2019-05-23T09:56:33.358Z,28.89
2019-05-23T09:57:33.349Z,28.08
2019-05-23T09:58:33.351Z,27.96
2019-05-23T09:59:33.333Z,28.52
2019-05-23T10:00:33.329Z,27.53
2019-05-23T10:01:33.316Z,27.12
2019-05-23T10:02:33.304Z,27.12
2019-05-23T10:03:33.306Z,26.61
2019-05-23T10:04:33.287Z,26.69
2019-05-23T10:05:42.528Z,26.42
2019-05-23T10:06:34.253Z,26.05
2019-05-23T10:07:33.270Z,26.26
2019-05-23T10:08:33.271Z,27.45
2019-05-23T10:09:33.241Z,27.06
2019-05-23T10:10:33.232Z,27.54
2019-05-23T10:11:33.225Z,27.34
2019-05-23T10:12:33.215Z,26.84
2019-05-23T10:13:38.981Z,26.45
2019-05-23T10:14:34.212Z,26.41
2019-05-23T10:15:33.178Z,25.79
2019-05-23T10:16:33.171Z,25.20
2019-05-23T10:17:33.217Z,24.29
2019-05-23T10:18:33.156Z,24.59
2019-05-23T10:19:33.164Z,24.10
2019-05-23T10:20:33.157Z,24.41
2019-05-23T10:21:33.136Z,25.21
2019-05-23T10:22:33.125Z,24.13
2019-05-23T10:23:33.109Z,24.53
2019-05-23T10:24:33.120Z,24.41
2019-05-23T10:25:33.101Z,23.90
2019-05-23T10:26:33.104Z,23.88
2019-05-23T10:27:33.093Z,22.99
2019-05-23T10:28:33.085Z,23.00
2019-05-23T10:29:33.077Z,23.60
2019-05-23T10:30:33.056Z,23.20
2019-05-23T10:31:33.083Z,23.68
2019-05-23T10:32:33.045Z,22.33
2019-05-23T10:33:33.046Z,22.81
2019-05-23T10:34:33.066Z,23.21
2019-05-23T10:35:33.016Z,23.39
2019-05-23T10:36:33.004Z,22.89
2019-05-23T10:37:32.994Z,22.20
2019-05-23T10:38:32.991Z,22.41
2019-05-23T10:39:33.031Z,23.18
2019-05-23T10:40:32.981Z,23.37
2019-05-23T10:41:32.969Z,23.59
2019-05-23T10:42:32.958Z,23.90
2019-05-23T10:43:32.947Z,23.99
2019-05-23T10:44:32.959Z,24.30
2019-05-23T10:45:32.954Z,23.83
2019-05-23T10:46:32.939Z,23.74
2019-05-23T10:47:32.958Z,24.43
2019-05-23T10:48:32.904Z,24.63
2019-05-23T10:49:32.903Z,25.02
2019-05-23T10:50:44.161Z,25.12
2019-05-23T10:51:33.888Z,25.12
2019-05-23T10:52:32.894Z,26.29
2019-05-23T10:53:32.868Z,26.41
2019-05-23T10:54:32.860Z,26.03
2019-05-23T10:55:32.863Z,26.04
2019-05-23T10:56:32.836Z,25.37
2019-05-23T10:57:32.832Z,26.28
2019-05-23T10:58:32.831Z,26.87
2019-05-23T10:59:32.818Z,26.45
2019-05-23T11:00:32.834Z,26.72
2019-05-23T11:01:32.813Z,25.82
2019-05-23T11:02:32.781Z,25.63
2019-05-23T11:03:32.782Z,24.33
2019-05-23T11:04:32.783Z,25.12
2019-05-23T11:05:33.546Z,25.73
2019-05-23T11:06:32.763Z,25.83
2019-05-23T11:07:32.750Z,25.93
2019-05-23T11:08:32.759Z,26.24
2019-05-23T11:09:37.745Z,26.43
2019-05-23T11:10:33.738Z,26.52
2019-05-23T11:11:32.720Z,26.70
2019-05-23T11:12:32.727Z,26.42
2019-05-23T11:13:32.705Z,26.62
2019-05-23T11:14:32.689Z,26.81
2019-05-23T11:15:32.665Z,26.34
2019-05-23T11:16:32.714Z,26.53
2019-05-23T11:17:32.698Z,26.43
2019-05-23T11:18:32.656Z,26.43
2019-05-23T11:19:32.650Z,26.45
2019-05-23T11:20:35.834Z,26.36
2019-05-23T11:21:32.626Z,27.54
2019-05-23T11:22:32.609Z,27.56
2019-05-23T11:23:32.685Z,26.97
2019-05-23T11:24:32.602Z,27.96
2019-05-23T11:25:32.584Z,27.86
2019-05-23T11:26:32.591Z,26.50
2019-05-23T11:27:32.567Z,26.59
2019-05-23T11:28:32.574Z,26.58
2019-05-23T11:29:32.550Z,25.71
2019-05-23T11:30:32.535Z,25.02
2019-05-23T11:31:32.543Z,25.40
2019-05-23T11:32:32.552Z,26.77
2019-05-23T11:33:32.518Z,27.15
2019-05-23T11:34:32.502Z,27.16
2019-05-23T11:35:32.496Z,27.48
2019-05-23T11:36:36.198Z,28.05
2019-05-23T11:37:32.487Z,27.19
2019-05-23T11:38:32.470Z,28.99
2019-05-23T11:39:32.449Z,28.09
2019-05-23T11:40:33.740Z,27.97
2019-05-23T11:41:32.458Z,28.95
2019-05-23T11:42:32.426Z,27.16
2019-05-23T11:43:32.428Z,26.95
2019-05-23T11:44:32.426Z,27.14
2019-05-23T11:45:32.406Z,27.11
2019-05-23T11:46:32.447Z,26.59
2019-05-23T11:47:32.468Z,26.38
2019-05-23T11:48:32.373Z,25.01
2019-05-23T11:49:32.368Z,24.69
2019-05-23T11:50:32.364Z,25.37
2019-05-23T11:51:32.358Z,23.39
2019-05-23T11:52:32.347Z,24.55
2019-05-23T11:53:32.339Z,24.20
2019-05-23T11:54:32.330Z,24.02
2019-05-23T11:55:32.322Z,24.73
2019-05-23T11:56:32.353Z,24.91
2019-05-23T11:57:32.316Z,25.40
2019-05-23T11:58:32.931Z,25.29
2019-05-23T11:59:32.275Z,23.70
2019-05-23T12:00:32.275Z,23.99
2019-05-23T12:01:32.256Z,24.41
2019-05-23T12:02:32.283Z,25.28
2019-05-23T12:03:32.262Z,24.09
2019-05-23T12:04:32.259Z,23.90
2019-05-23T12:05:32.235Z,24.38
2019-05-23T12:06:32.210Z,25.38
2019-05-23T12:07:32.234Z,25.22
2019-05-23T12:08:32.220Z,26.42
2019-05-23T12:09:32.194Z,26.84
2019-05-23T12:10:32.182Z,27.15
2019-05-23T12:11:36.386Z,27.25
2019-05-23T12:12:33.183Z,28.02
2019-05-23T12:13:32.154Z,28.29
2019-05-23T12:14:32.144Z,27.80
2019-05-23T12:15:32.148Z,27.31
2019-05-23T12:16:32.144Z,27.61
2019-05-23T12:17:32.123Z,27.92
2019-05-23T12:18:32.141Z,27.84
2019-05-23T12:19:32.337Z,28.06
2019-05-23T12:20:32.095Z,28.16
2019-05-23T12:21:32.094Z,28.26
2019-05-23T12:22:32.115Z,28.37
2019-05-23T12:23:32.095Z,28.78
2019-05-23T12:24:35.301Z,29.09
2019-05-23T12:25:32.040Z,28.72
2019-05-23T12:26:32.048Z,28.83
2019-05-23T12:27:32.054Z,29.55
2019-05-23T12:28:32.045Z,30.55
2019-05-23T12:29:32.008Z,29.96
2019-05-23T12:30:32.010Z,30.46
2019-05-23T12:31:31.983Z,30.74
2019-05-23T12:32:31.976Z,30.24
2019-05-23T12:33:31.963Z,29.77
2019-05-23T12:34:31.969Z,29.57
2019-05-23T12:35:31.951Z,29.07
2019-05-23T12:36:31.956Z,28.96
2019-05-23T12:37:31.924Z,28.56
2019-05-23T12:38:31.927Z,28.76
2019-05-23T12:39:31.933Z,29.25
2019-05-23T12:40:31.903Z,29.06
2019-05-23T12:41:31.905Z,28.85
2019-05-23T12:42:31.888Z,28.44
2019-05-23T12:43:31.868Z,27.64
2019-05-23T12:44:31.870Z,27.79
2019-05-23T12:45:31.858Z,27.76
2019-05-23T12:46:31.842Z,27.74
2019-05-23T12:47:31.840Z,27.43
2019-05-23T12:48:31.829Z,27.14
2019-05-23T12:49:31.841Z,27.34
2019-05-23T12:50:31.904Z,27.42
2019-05-23T12:51:31.801Z,26.42
2019-05-23T12:52:31.789Z,26.42